createdAt,value
2023-05-17T00:00:19.797Z,4.30
2023-05-17T00:02:46.632Z,4.03
2023-05-17T00:05:13.432Z,4.10
2023-05-17T00:07:40.276Z,4.03
2023-05-17T00:10:07.706Z,3.50
2023-05-17T00:12:34.693Z,4.03
2023-05-17T00:15:01.475Z,3.80
2023-05-17T00:17:28.418Z,4.23
2023-05-17T00:19:55.228Z,3.57
2023-05-17T00:22:22.157Z,4.53
2023-05-17T00:24:49.032Z,3.90
2023-05-17T00:27:15.855Z,4.10
2023-05-17T00:29:42.712Z,4.40
2023-05-17T00:32:09.571Z,4.03
2023-05-17T00:34:36.420Z,4.33
2023-05-17T00:37:03.211Z,4.47
2023-05-17T00:39:30.019Z,4.37
2023-05-17T00:41:56.800Z,3.80
2023-05-17T00:44:23.582Z,3.73
2023-05-17T00:46:50.585Z,4.67
2023-05-17T00:49:17.872Z,4.47
2023-05-17T00:51:46.032Z,4.30
2023-05-17T00:54:14.004Z,4.20
2023-05-17T00:56:40.958Z,4.43
2023-05-17T00:59:08.188Z,4.73
2023-05-17T01:01:37.206Z,5.07
2023-05-17T01:04:04.368Z,4.83
2023-05-17T01:06:31.362Z,4.30
2023-05-17T01:08:58.161Z,4.97
2023-05-17T01:11:27.956Z,5.23
2023-05-17T01:14:01.267Z,5.20
2023-05-17T01:16:31.130Z,4.37
2023-05-17T01:19:24.615Z,4.73
2023-05-17T01:22:17.550Z,3.97
2023-05-17T01:25:00.844Z,4.90
2023-05-17T01:27:30.271Z,4.63
2023-05-17T01:29:57.961Z,5.00
2023-05-17T01:32:25.553Z,4.63
2023-05-17T01:34:52.554Z,5.07
2023-05-17T01:37:19.363Z,5.47
2023-05-17T01:39:46.738Z,5.60
2023-05-17T01:42:22.413Z,4.77
2023-05-17T01:45:07.502Z,5.40
2023-05-17T01:47:49.234Z,4.93
2023-05-17T01:50:19.625Z,5.27
2023-05-17T01:52:54.080Z,5.03
2023-05-17T01:55:34.430Z,5.33
2023-05-17T01:58:03.638Z,5.63
2023-05-17T02:00:31.045Z,4.53
2023-05-17T02:02:57.913Z,5.60
2023-05-17T02:05:27.878Z,4.93
2023-05-17T02:07:54.874Z,5.20
2023-05-17T02:10:21.793Z,5.40
2023-05-17T02:12:48.538Z,6.07
2023-05-17T02:15:16.639Z,6.20
2023-05-17T02:17:43.509Z,5.40
2023-05-17T02:20:11.679Z,5.63
2023-05-17T02:22:38.983Z,6.80
2023-05-17T02:25:06.800Z,5.27
2023-05-17T02:27:33.886Z,5.67
2023-05-17T02:30:02.082Z,5.27
2023-05-17T02:32:29.420Z,5.00
2023-05-17T02:34:56.568Z,5.50
2023-05-17T02:37:23.339Z,5.83
2023-05-17T02:39:50.353Z,5.70
2023-05-17T02:42:17.561Z,5.50
2023-05-17T02:44:44.413Z,6.30
2023-05-17T02:47:11.193Z,6.60
2023-05-17T02:49:38.396Z,5.57
2023-05-17T02:52:05.596Z,5.13
2023-05-17T02:54:32.451Z,5.70
2023-05-17T02:56:59.238Z,5.93
2023-05-17T02:59:26.007Z,5.93
2023-05-17T03:01:52.869Z,5.70
2023-05-17T03:04:20.369Z,5.87
2023-05-17T03:06:47.237Z,6.20
2023-05-17T03:09:14.281Z,6.90
2023-05-17T03:11:41.187Z,7.70
2023-05-17T03:14:08.023Z,6.27
2023-05-17T03:16:35.184Z,6.37
2023-05-17T03:19:02.283Z,6.30
2023-05-17T03:21:29.320Z,5.70
2023-05-17T03:23:56.260Z,5.60
2023-05-17T03:26:24.093Z,6.27
2023-05-17T03:28:51.308Z,5.37
2023-05-17T03:31:19.379Z,6.30
2023-05-17T03:33:46.233Z,6.57
2023-05-17T03:36:13.192Z,6.80
2023-05-17T03:38:39.994Z,6.50
2023-05-17T03:41:06.975Z,7.03
2023-05-17T03:43:33.906Z,5.57
2023-05-17T03:46:00.757Z,7.90
2023-05-17T03:48:28.005Z,6.57
2023-05-17T03:50:55.298Z,6.30
2023-05-17T03:53:22.261Z,6.00
2023-05-17T03:55:49.035Z,5.90
2023-05-17T03:58:15.792Z,6.50
2023-05-17T04:00:42.750Z,6.50
2023-05-17T04:03:09.514Z,6.67
2023-05-17T04:05:36.247Z,7.03
2023-05-17T04:08:03.083Z,6.67
2023-05-17T04:10:29.997Z,6.70
2023-05-17T04:12:57.160Z,5.20
2023-05-17T04:15:23.890Z,5.60
2023-05-17T04:17:50.945Z,6.03
2023-05-17T04:20:17.904Z,7.03
2023-05-17T04:22:44.686Z,7.50
2023-05-17T04:25:12.078Z,6.37
2023-05-17T04:27:39.158Z,6.67
2023-05-17T04:30:06.602Z,5.83
2023-05-17T04:32:34.284Z,6.83
2023-05-17T04:35:01.286Z,6.27
2023-05-17T04:37:28.074Z,6.90
2023-05-17T04:39:54.881Z,7.33
2023-05-17T04:42:21.676Z,7.00
2023-05-17T04:44:48.478Z,6.53
2023-05-17T04:47:15.268Z,7.00
2023-05-17T04:49:43.310Z,6.80
2023-05-17T04:52:10.088Z,7.47
2023-05-17T04:54:36.926Z,6.40
2023-05-17T04:57:04.180Z,8.90
2023-05-17T04:59:31.008Z,6.37
2023-05-17T05:01:57.816Z,7.90
2023-05-17T05:04:25.609Z,6.77
2023-05-17T05:06:52.504Z,6.93
2023-05-17T05:09:19.236Z,6.10
2023-05-17T05:11:46.083Z,6.50
2023-05-17T05:14:12.874Z,6.57
2023-05-17T05:16:39.648Z,7.00
2023-05-17T05:19:06.803Z,5.73
2023-05-17T05:21:33.754Z,6.20
2023-05-17T05:24:00.561Z,5.60
2023-05-17T05:26:27.308Z,5.53
2023-05-17T05:28:54.090Z,5.23
2023-05-17T05:31:20.977Z,5.30
2023-05-17T05:33:47.915Z,5.60
2023-05-17T05:36:14.788Z,5.23
2023-05-17T05:38:41.512Z,5.37
2023-05-17T05:41:08.327Z,14.70
2023-05-17T05:43:36.263Z,4.60
2023-05-17T05:46:03.586Z,3.70
2023-05-17T05:48:30.540Z,3.83
2023-05-17T05:50:57.537Z,4.00
2023-05-17T05:53:24.367Z,3.83
2023-05-17T05:55:51.169Z,3.90
2023-05-17T05:58:17.952Z,4.20
2023-05-17T06:00:45.145Z,3.77
2023-05-17T06:03:11.941Z,3.27
2023-05-17T06:05:40.452Z,3.47
2023-05-17T06:08:07.520Z,4.67
2023-05-17T06:10:34.458Z,4.10
2023-05-17T06:13:01.676Z,3.80
2023-05-17T06:15:28.892Z,3.47
2023-05-17T06:17:55.876Z,3.47
2023-05-17T06:20:22.788Z,3.73
2023-05-17T06:22:49.679Z,3.13
2023-05-17T06:25:16.673Z,3.27
2023-05-17T06:27:43.854Z,4.00
2023-05-17T06:30:11.462Z,3.90
2023-05-17T06:32:38.242Z,3.07
2023-05-17T06:35:05.672Z,2.70
2023-05-17T06:37:32.580Z,2.40
2023-05-17T06:40:16.118Z,2.80
2023-05-17T06:42:43.877Z,3.33
2023-05-17T06:45:11.393Z,2.17
2023-05-17T06:47:38.309Z,2.57
2023-05-17T06:50:05.913Z,3.47
2023-05-17T06:52:32.852Z,3.00
2023-05-17T06:54:59.641Z,3.00
2023-05-17T06:57:26.715Z,2.73
2023-05-17T06:59:53.494Z,3.30
2023-05-17T07:02:20.340Z,2.90
2023-05-17T07:04:47.124Z,3.03
2023-05-17T07:07:14.036Z,2.40
2023-05-17T07:09:41.431Z,3.10
2023-05-17T07:12:08.312Z,3.20
2023-05-17T07:14:35.095Z,2.87
2023-05-17T07:17:02.248Z,3.27
2023-05-17T07:19:29.171Z,3.13
2023-05-17T07:21:56.038Z,2.30
2023-05-17T07:24:22.922Z,3.30
2023-05-17T07:26:52.582Z,3.53
2023-05-17T07:29:19.703Z,2.47
2023-05-17T07:31:46.585Z,2.60
2023-05-17T07:34:16.218Z,2.50
2023-05-17T07:36:43.146Z,3.00
2023-05-17T07:39:10.210Z,2.43
2023-05-17T07:41:37.293Z,2.83
2023-05-17T07:44:04.162Z,2.40
2023-05-17T07:46:31.061Z,3.07
2023-05-17T07:48:59.034Z,4.00
2023-05-17T07:51:26.446Z,3.50
2023-05-17T07:53:53.392Z,2.23
2023-05-17T07:56:20.527Z,2.60
2023-05-17T07:58:47.255Z,2.90
2023-05-17T08:01:14.027Z,2.20
2023-05-17T08:03:47.795Z,2.90
2023-05-17T08:06:17.978Z,2.73
2023-05-17T08:08:45.282Z,3.03
2023-05-17T08:11:13.249Z,3.00
2023-05-17T08:13:40.099Z,2.80
2023-05-17T08:16:14.127Z,2.40
2023-05-17T08:18:42.813Z,2.13
2023-05-17T08:21:09.962Z,2.40
2023-05-17T08:23:36.848Z,2.83
2023-05-17T08:26:03.852Z,2.93
2023-05-17T08:28:30.676Z,2.60
2023-05-17T08:30:58.360Z,2.40
2023-05-17T08:33:26.258Z,3.00
2023-05-17T08:35:55.352Z,3.03
2023-05-17T08:38:22.575Z,2.80
2023-05-17T08:40:56.041Z,2.60
2023-05-17T08:43:25.246Z,2.40
2023-05-17T08:45:57.519Z,2.20
2023-05-17T08:48:26.605Z,2.67
2023-05-17T08:50:55.930Z,2.57
2023-05-17T08:53:23.555Z,3.23
2023-05-17T08:55:51.316Z,2.63
2023-05-17T08:58:24.917Z,2.53
2023-05-17T09:00:53.012Z,2.30
2023-05-17T09:03:22.578Z,2.93
2023-05-17T09:05:53.608Z,3.07
2023-05-17T09:08:22.381Z,2.57
2023-05-17T09:10:50.712Z,2.73
2023-05-17T09:13:17.564Z,2.63
2023-05-17T09:15:47.136Z,2.87
2023-05-17T09:18:16.296Z,3.20
2023-05-17T09:20:51.524Z,2.60
2023-05-17T09:23:21.005Z,2.73
2023-05-17T09:25:50.802Z,2.83
2023-05-17T09:28:22.012Z,2.80
2023-05-17T09:30:49.676Z,2.90
2023-05-17T09:33:18.683Z,2.90
2023-05-17T09:35:46.001Z,2.60
2023-05-17T09:38:14.019Z,2.90
2023-05-17T09:40:41.420Z,3.13
2023-05-17T09:43:09.409Z,3.40
2023-05-17T09:45:36.835Z,4.50
2023-05-17T09:48:13.858Z,3.30
2023-05-17T09:50:49.325Z,2.57
2023-05-17T09:53:42.431Z,3.13
2023-05-17T09:56:10.396Z,3.60
2023-05-17T09:58:37.936Z,2.30
2023-05-17T10:01:06.613Z,2.70
2023-05-17T10:03:37.783Z,3.00
2023-05-17T10:06:13.421Z,2.93
2023-05-17T10:08:51.159Z,2.90
2023-05-17T10:11:21.168Z,2.83
2023-05-17T10:14:07.555Z,2.90
2023-05-17T10:16:34.770Z,2.80
2023-05-17T10:19:03.713Z,2.80
2023-05-17T10:21:31.883Z,3.13
2023-05-17T10:24:05.969Z,2.83
2023-05-17T10:26:33.394Z,2.77
2023-05-17T10:29:02.153Z,3.30
2023-05-17T10:31:33.754Z,2.60
2023-05-17T10:34:05.809Z,2.97
2023-05-17T10:36:34.036Z,2.80
2023-05-17T10:39:01.976Z,3.07
2023-05-17T10:41:35.056Z,3.17
2023-05-17T10:44:05.414Z,2.80
2023-05-17T10:46:32.408Z,2.63
2023-05-17T10:49:00.623Z,2.93
2023-05-17T10:51:34.666Z,2.53
2023-05-17T10:54:12.098Z,2.80
2023-05-17T10:56:47.138Z,3.23
2023-05-17T10:59:21.765Z,2.27
2023-05-17T11:01:51.861Z,2.90
2023-05-17T11:04:42.286Z,3.20
2023-05-17T11:07:22.109Z,3.30
2023-05-17T11:09:59.907Z,2.33
2023-05-17T11:12:35.933Z,2.60
2023-05-17T12:04:12.657Z,3.20
2023-05-17T12:06:39.994Z,2.80
2023-05-17T12:09:11.069Z,3.03
2023-05-17T12:11:40.886Z,4.47
2023-05-17T12:14:07.797Z,3.37
2023-05-17T12:16:36.964Z,3.10
2023-05-17T12:19:03.946Z,3.27
2023-05-17T12:21:31.045Z,2.77
2023-05-17T12:23:57.929Z,3.20
2023-05-17T12:26:24.888Z,2.83
2023-05-17T12:28:57.557Z,3.30
2023-05-17T12:31:29.941Z,3.03
2023-05-17T12:33:59.176Z,3.10
2023-05-17T12:36:29.265Z,3.10
2023-05-17T12:38:57.041Z,3.13
2023-05-17T12:41:28.412Z,2.77
2023-05-17T12:44:06.222Z,3.20
2023-05-17T12:46:41.143Z,3.60
2023-05-17T12:49:09.346Z,2.60
2023-05-17T12:51:44.442Z,2.90
2023-05-17T12:54:14.231Z,3.00
2023-05-17T12:56:45.032Z,2.50
2023-05-17T12:59:14.712Z,2.83
2023-05-17T13:01:49.048Z,2.73
2023-05-17T13:04:17.535Z,3.33
2023-05-17T13:06:45.309Z,3.13
2023-05-17T13:09:12.652Z,2.57
2023-05-17T13:11:41.463Z,4.13
2023-05-17T13:14:09.055Z,3.27
2023-05-17T13:16:40.383Z,3.63
2023-05-17T13:19:16.284Z,2.83
2023-05-17T13:21:43.123Z,3.30
2023-05-17T13:24:11.110Z,3.33
2023-05-17T13:26:37.983Z,3.20
2023-05-17T13:29:04.841Z,3.20
2023-05-17T13:31:31.619Z,3.17
2023-05-17T13:33:58.684Z,3.10
2023-05-17T13:36:26.134Z,2.90
2023-05-17T13:38:54.044Z,3.00
2023-05-17T13:41:20.825Z,3.10
2023-05-17T13:43:47.603Z,2.70
2023-05-17T13:46:17.221Z,2.47
2023-05-17T13:48:44.120Z,2.60
2023-05-17T13:51:13.638Z,3.47
2023-05-17T13:53:41.555Z,2.90
2023-05-17T13:56:08.380Z,3.27
2023-05-17T13:58:35.141Z,3.13
2023-05-17T14:01:02.457Z,3.07
2023-05-17T14:03:29.353Z,2.73
2023-05-17T14:05:56.289Z,3.30
2023-05-17T14:08:23.115Z,3.90
2023-05-17T14:10:49.907Z,3.07
2023-05-17T14:13:16.825Z,2.80
2023-05-17T14:15:43.615Z,2.80
2023-05-17T14:18:10.921Z,3.30
2023-05-17T14:20:37.787Z,3.10
2023-05-17T14:23:04.685Z,3.20
2023-05-17T14:25:31.658Z,2.97
2023-05-17T14:27:58.674Z,3.47
2023-05-17T14:30:25.939Z,3.07
2023-05-17T14:32:52.900Z,2.90
2023-05-17T14:35:19.797Z,2.60
2023-05-17T14:37:46.642Z,2.60
2023-05-17T14:40:13.657Z,2.87
2023-05-17T14:42:40.879Z,2.80
2023-05-17T14:45:08.998Z,3.10
2023-05-17T14:47:36.971Z,2.53
2023-05-17T14:50:04.420Z,3.03
2023-05-17T14:52:31.266Z,3.10
2023-05-17T14:54:58.411Z,2.70
2023-05-17T14:57:25.932Z,2.70
2023-05-17T14:59:53.053Z,3.00
2023-05-17T15:02:20.066Z,3.60
2023-05-17T15:04:47.592Z,3.20
2023-05-17T15:07:14.470Z,2.90
2023-05-17T15:09:43.039Z,2.60
2023-05-17T15:12:13.635Z,3.50
2023-05-17T15:14:41.033Z,3.13
2023-05-17T15:17:08.225Z,2.90
2023-05-17T15:19:35.210Z,2.60
2023-05-17T15:22:02.291Z,3.17
2023-05-17T15:24:29.673Z,3.50
2023-05-17T15:26:56.885Z,2.77
2023-05-17T15:29:23.648Z,3.00
2023-05-17T15:31:50.553Z,3.00
2023-05-17T15:34:17.526Z,2.90
2023-05-17T15:36:44.446Z,3.10
2023-05-17T15:39:11.249Z,2.80
2023-05-17T15:41:38.843Z,3.10
2023-05-17T15:44:06.173Z,3.10
2023-05-17T15:46:32.917Z,3.00
2023-05-17T15:48:59.746Z,4.47
2023-05-17T15:51:26.615Z,2.93
2023-05-17T15:53:53.560Z,2.90
2023-05-17T15:56:21.016Z,2.83
2023-05-17T15:58:47.974Z,2.63
2023-05-17T16:01:15.440Z,3.07
2023-05-17T16:03:42.557Z,3.50
2023-05-17T16:06:09.376Z,2.67
2023-05-17T16:08:36.332Z,3.07
2023-05-17T16:11:03.432Z,3.03
2023-05-17T16:13:31.094Z,2.90
2023-05-17T16:15:59.096Z,3.40
2023-05-17T16:18:26.633Z,2.77
2023-05-17T16:21:02.656Z,2.80
2023-05-17T16:23:29.579Z,2.90
2023-05-17T16:25:56.649Z,2.70
2023-05-17T16:28:23.883Z,2.87
2023-05-17T16:30:51.660Z,2.77
2023-05-17T16:33:20.509Z,3.17
2023-05-17T16:35:49.024Z,3.70
2023-05-17T16:38:16.212Z,3.27
2023-05-17T16:40:43.080Z,3.27
2023-05-17T16:43:11.106Z,3.10
2023-05-17T16:45:37.879Z,3.00
2023-05-17T16:48:04.970Z,3.43
2023-05-17T16:50:31.922Z,3.33
2023-05-17T16:52:58.902Z,3.23
2023-05-17T16:55:25.812Z,3.77
2023-05-17T16:57:52.682Z,3.17
2023-05-17T17:00:20.186Z,3.00
2023-05-17T17:02:47.109Z,3.27
2023-05-17T17:05:14.041Z,2.93
2023-05-17T17:07:40.915Z,3.97
2023-05-17T17:10:08.169Z,3.83
2023-05-17T17:12:34.939Z,3.63
2023-05-17T17:15:02.236Z,3.50
2023-05-17T17:17:29.702Z,3.47
2023-05-17T17:19:56.560Z,3.53
2023-05-17T17:22:23.377Z,3.03
2023-05-17T17:24:50.165Z,3.43
2023-05-17T17:27:16.923Z,4.13
2023-05-17T17:29:43.745Z,3.17
2023-05-17T17:32:11.548Z,2.97
2023-05-17T17:34:38.825Z,3.70
2023-05-17T17:37:06.078Z,2.93
2023-05-17T17:39:32.984Z,2.73
2023-05-17T17:41:59.772Z,3.20
2023-05-17T17:44:26.594Z,3.27
2023-05-17T17:46:53.546Z,3.23
2023-05-17T17:49:20.410Z,3.40
2023-05-17T17:51:47.227Z,2.50
2023-05-17T17:54:14.027Z,2.80
2023-05-17T17:56:40.922Z,3.40
2023-05-17T17:59:07.934Z,2.83
2023-05-17T18:01:42.402Z,2.70
2023-05-17T18:04:09.699Z,2.90
2023-05-17T18:06:36.729Z,2.97
2023-05-17T18:09:03.565Z,3.77
2023-05-17T18:11:30.541Z,3.50
2023-05-17T18:13:57.357Z,2.60
2023-05-17T18:16:24.186Z,3.20
2023-05-17T18:18:51.198Z,3.40
2023-05-17T18:21:18.093Z,3.73
2023-05-17T18:23:44.959Z,3.53
2023-05-17T18:26:12.049Z,3.60
2023-05-17T18:28:42.437Z,3.13
2023-05-17T18:31:10.330Z,3.30
2023-05-17T18:33:37.171Z,3.30
2023-05-17T18:36:04.393Z,3.67
2023-05-17T18:38:31.318Z,3.37
2023-05-17T18:40:58.158Z,4.03
2023-05-17T18:43:25.026Z,3.37
2023-05-17T18:45:52.228Z,3.47
2023-05-17T18:48:21.943Z,3.70
2023-05-17T18:50:48.980Z,3.40
2023-05-17T18:53:15.964Z,3.57
2023-05-17T18:55:42.757Z,3.17
2023-05-17T18:58:09.961Z,4.00
2023-05-17T19:00:36.869Z,5.43
2023-05-17T19:03:04.516Z,5.43
2023-05-17T19:05:31.495Z,4.00
2023-05-17T19:07:58.371Z,3.90
2023-05-17T19:10:25.364Z,3.70
2023-05-17T19:12:52.563Z,4.90
2023-05-17T19:15:19.907Z,6.17
2023-05-17T19:17:46.917Z,5.40
2023-05-17T19:20:13.962Z,4.10
2023-05-17T19:22:40.817Z,3.75
2023-05-17T19:25:08.141Z,3.57
2023-05-17T19:27:34.931Z,3.17
2023-05-17T19:30:01.843Z,3.03
2023-05-17T19:32:30.310Z,3.63
2023-05-17T19:34:57.118Z,3.90
2023-05-17T19:37:23.928Z,4.53
2023-05-17T19:39:50.745Z,5.27
2023-05-17T19:42:18.265Z,6.40
2023-05-17T19:44:45.150Z,6.13
2023-05-17T19:47:11.975Z,4.40
2023-05-17T19:49:38.832Z,4.97
2023-05-17T19:52:05.981Z,4.13
2023-05-17T19:54:32.780Z,3.93
2023-05-17T19:56:59.851Z,3.80
2023-05-17T19:59:26.717Z,3.50
2023-05-17T20:01:53.632Z,4.40
2023-05-17T20:04:20.989Z,4.13
2023-05-17T20:06:47.810Z,4.20
2023-05-17T20:09:15.066Z,3.77
2023-05-17T20:11:42.579Z,3.60
2023-05-17T20:14:11.493Z,3.93
2023-05-17T20:16:38.781Z,4.30
2023-05-17T20:19:05.770Z,4.57
2023-05-17T20:21:32.987Z,4.40
2023-05-17T20:24:03.986Z,4.60
2023-05-17T20:26:37.361Z,4.20
2023-05-17T20:29:07.317Z,4.77
2023-05-17T20:31:35.451Z,3.83
2023-05-17T20:34:03.194Z,4.57
2023-05-17T20:36:30.078Z,4.80
2023-05-17T20:38:56.962Z,4.37
2023-05-17T20:41:23.961Z,4.80
2023-05-17T20:43:51.808Z,5.97
2023-05-17T20:46:18.880Z,7.10
2023-05-17T20:48:47.822Z,6.63
2023-05-17T20:51:15.554Z,6.90
2023-05-17T20:53:42.452Z,5.90
2023-05-17T20:56:09.374Z,6.93
2023-05-17T20:58:36.622Z,7.07
2023-05-17T21:01:03.569Z,6.57
2023-05-17T21:03:34.112Z,5.13
2023-05-17T21:06:02.146Z,5.30
2023-05-17T21:08:29.169Z,4.87
2023-05-17T21:10:56.548Z,5.20
2023-05-17T21:13:25.725Z,5.07
2023-05-17T21:15:56.251Z,5.00
2023-05-17T21:18:25.892Z,5.50
2023-05-17T21:20:53.323Z,6.00
2023-05-17T21:23:20.282Z,5.17
2023-05-17T21:25:47.438Z,5.57
2023-05-17T21:28:14.684Z,5.80
2023-05-17T21:30:41.547Z,6.17
2023-05-17T21:33:08.607Z,5.00
2023-05-17T21:35:35.494Z,5.70
2023-05-17T21:38:02.250Z,6.30
2023-05-17T21:40:29.213Z,5.70
2023-05-17T21:42:56.139Z,6.50
2023-05-17T21:45:22.954Z,8.33
2023-05-17T21:47:49.796Z,9.23
2023-05-17T21:50:16.788Z,8.07
2023-05-17T21:52:43.884Z,6.23
2023-05-17T21:55:11.056Z,5.60
2023-05-17T21:57:38.042Z,6.07
2023-05-17T22:00:07.884Z,5.90
2023-05-17T22:02:36.011Z,4.90
2023-05-17T22:05:03.074Z,5.50
2023-05-17T22:07:29.991Z,5.17
2023-05-17T22:09:58.354Z,5.47
2023-05-17T22:12:26.131Z,5.60
2023-05-17T22:14:54.256Z,5.50
2023-05-17T22:17:35.072Z,6.33
2023-05-17T22:20:11.533Z,5.10
2023-05-17T22:22:38.620Z,5.57
2023-05-17T22:25:06.871Z,6.73
2023-05-17T22:27:33.824Z,6.77
2023-05-17T22:30:00.858Z,6.50
2023-05-17T22:32:27.825Z,6.90
2023-05-17T22:34:56.205Z,6.97
2023-05-17T22:37:23.632Z,6.10
2023-05-17T22:39:50.581Z,6.87
2023-05-17T22:42:17.391Z,6.03
2023-05-17T22:44:44.278Z,7.70
2023-05-17T22:47:14.927Z,7.13
2023-05-17T22:49:42.310Z,7.17
2023-05-17T22:52:11.023Z,6.03
2023-05-17T22:54:38.563Z,6.57
2023-05-17T22:57:05.958Z,6.83
2023-05-17T22:59:33.186Z,7.50
2023-05-17T23:02:01.341Z,6.73
2023-05-17T23:04:30.172Z,6.57
2023-05-17T23:07:02.387Z,6.20
2023-05-17T23:09:30.050Z,6.80
2023-05-17T23:11:57.448Z,6.83
2023-05-17T23:14:24.213Z,6.33
2023-05-17T23:16:51.014Z,7.50
2023-05-17T23:19:18.156Z,6.60
2023-05-17T23:21:46.443Z,6.83
2023-05-17T23:24:14.085Z,6.73
2023-05-17T23:26:41.461Z,6.93
2023-05-17T23:29:10.628Z,7.13
2023-05-17T23:31:37.930Z,6.70
2023-05-17T23:34:06.871Z,6.27
2023-05-17T23:36:33.843Z,7.33
2023-05-17T23:39:00.649Z,6.43
2023-05-17T23:41:29.389Z,7.50
2023-05-17T23:43:57.150Z,7.30
2023-05-17T23:46:24.204Z,6.20
2023-05-17T23:48:51.141Z,6.03
2023-05-17T23:51:21.235Z,6.60
2023-05-17T23:53:49.133Z,7.53
2023-05-17T23:56:17.561Z,8.63
2023-05-17T23:58:45.939Z,8.50
